Aeroporto :
LOGIN :

Iscrizione | Disclaimer

   EN    FR    IT 

 










Sommario :    VFR   VFR Marginale   IFR   IFR Intensivo   IFR Molto Intensivo
Visibilità : 
Base nubi : 
>= 8 km
>= 3000ft
5 / 8 km
1000 / 3000 ft
1500m / 5 km
500 / 1000 ft
800 / 1500m
200 / 500 ft
< 800m
< 200 ft
Simboli :   Temporali  Nebbia  Neve Forte  Precipitazioni Forti  Vento > 20 kt
SIGMETs :   Varie  Temporali  Ghiacco  Turbolenza  Onda orograficha  Ceneri Vulcaniche






- Altitudine del aeroporto : 56 ft
- Codice IATA : ILY


EGPI - Islay

ULTIMO METAR :
  • 180350Z AUTO 24019G32KT 190V270 9000 -RA BKN021/// 05/04 Q1004

METARs OBSOLETI :
  • 180320Z AUTO 23020KT 200V260 9000 SCT014/// SCT024/// BKN036/// 05/04 Q1004 RERA
  • 180250Z AUTO 23026KT 190V250 4800 RA FEW018/// SCT023/// 05/03 Q1005
  • 180220Z AUTO 26018KT 9999 SCT025/// 06/04 Q1004 RERA
  • 180150Z AUTO 25023G33KT 210V270 9999 -RA SCT023/// 06/03 Q1004
  • 180120Z AUTO 26020KT 9999 NCD 05/03 Q1004 RERA

TAF TAF EGPI
Valido dal 18 a 03 ore il 18 a 12 ore UTC


180156Z 1803/1812 25022KT 9999 SCT018
TEMPO 1803/1812 26025G35KT 6000 SHRA BKN012CB
PROB40
TEMPO 1803/1809 2500 +SHRAGS



MetMap, La meteo Aeronautica in un colpo d'occhio ! - Copyright ORBIFLY Dicembre 2007 - Disclaimer

ORBIFLY MET'MAP TEAM :

Programmazione e sviluppo : Alexandra Zaïnal
Concezione : Baudouin d'Aumeries
Aiuto per la programmazione : Marc-Olivier Méhu
Supporto tecnico e logistico : Manuel Goepfert
Aiuto per la traduzione : Arnaldo La Scala

Contatto : metmap@orbifly.com




FONTI E CREDITI :

   NOAA